x

Cape Elizabeth- 45nm Nw Of Aberdeen, Wa (46041) Wave Buoy

5:50am - Tue 28th Feb 2017 All times are PST. -8 hours from GMT.

  • Sig Wave height 7.9ft
  • Swell Direction
  • Peak Period 8s
  • Average Period 6s
  • Wind
    20mph, 27mph gusts
  • Sea Temp 47°f
  • Air Temp 44°f
  • Sea Pressure 1013mb
  • Cape Elizabeth- 45nm Nw Of Aberdeen, Wa
  • Cape Elizabeth- 45nm Nw Of Aberdeen, Wa

More Historic Weather Station data

Upgrade to MSW Pro to gain access to the past 30 days of data for over 8000 Wavebouys and Weather Stations around the globe.

Join Pro

Comparision Forecast

View Surf forecast
   
Tue 02/28 5:50am 8ft 8s 6s 20 27 mph 1013mb 47f 44f
4:50am 7.5ft 8s 6s 25 29 mph 1012mb 48f 44f
3:50am 7.5ft 9s 6s 22 29 mph 1011.2mb 48f 44f
2:50am 8ft 8s 6s 22 27 mph 1010.5mb 48f 44f
1:50am 8.5ft 8s 6s 25 29 mph 1009.8mb 48f 44f
12:50am 8ft 14s 6s 25 31 mph 1009.1mb 48f 44f
Mon 02/27 11:50pm 7.5ft 11s 6s 22 27 mph 1008.6mb 48f 44f
10:50pm 7ft 14s 6s 22 27 mph 1008.4mb 48f 44f
9:50pm 6.5ft 14s 6s 27 36 mph 1008.2mb 48f 44f
8:50pm 6.5ft 12s 7s 25 29 mph 1007.9mb 48f 44f
7:50pm 6ft 15s 7s 25 29 mph 1007.5mb 48f 43f
6:50pm 6.5ft 15s 7s 18 20 mph 1007.2mb 49f 44f
5:50pm 6.5ft 15s 6s 16 20 mph 1006.6mb 49f 44f
4:50pm 7ft 15s 7s 16 18 mph 1006.3mb 49f 45f
3:50pm 7.5ft 13s 7s 18 20 mph 1006.2mb 49f 45f
2:50pm 8ft 14s 7s 18 25 mph 1006.2mb 49f 44f
1:50pm 8ft 13s 7s 16 20 mph 1006mb 49f 43f
12:50pm 9.5ft 11s 7s 18 22 mph 1006.2mb 49f 42f
11:50am 9ft 11s 7s 16 22 mph 1006.6mb 49f 42f
10:50am 9ft 11s 7s 20 29 mph 1006.3mb 49f 45f
9:50am 9ft 11s 7s 20 25 mph 1006.3mb 48f 44f
8:50am 9.5ft 12s 8s 20 25 mph 1006.2mb 49f 44f
7:50am 8.5ft 12s 8s 20 25 mph 1006.3mb 49f 44f
6:50am 9ft 15s 9s 11 20 mph 1006.4mb 49f 44f
5:50am 8.5ft 13s 9s 4 9 mph 1006.8mb 49f 42f
4:50am 9ft 11s 9s 4 7 mph 1007.1mb 48f 40f
3:50am 8.5ft 13s 9s 2 4 mph 1007.1mb 48f 44f
2:50am 10ft 13s 10s 2 4 mph 1007.8mb 48f 43f
1:50am 9ft 12s 9s 2 4 mph 1008mb 48f 43f
12:50am 9.5ft 15s 9s 2 7 mph 1007.9mb 48f 43f
Sun 02/26 11:50pm 10ft 13s 9s 7 9 mph 1007.7mb 48f 43f
10:50pm 10ft 11s 9s 4 9 mph 1008mb 48f 43f
9:50pm 10.5ft 11s 9s 11 20 mph 1007.7mb 47f 44f
8:50pm 10.5ft 12s 9s 7 9 mph 1007.7mb 47f 44f
7:50pm 10ft 14s 10s 7 9 mph 1007.4mb 47f 43f
6:50pm 10ft 15s 10s 4 7 mph 1007.4mb 47f 42f
5:50pm 9ft 14s 9s  -  2 mph 1006.7mb 48f 42f
4:50pm 8ft 9s 9s 4
mph
1006.7mb 48f 42f
3:50pm 8.5ft 14s 9s 4 7 mph 1006.1mb 47f 42f
2:50pm 9ft 15s 9s 7 11 mph 1005.3mb 47f 41f
1:50pm 8ft 16s 9s 4 9 mph 1004.9mb 47f 40f
12:50pm 8.5ft 16s 9s 9 11 mph 1004.4mb 47f 40f
11:50am 8ft 15s 8s 7 11 mph 1004.3mb 47f 40f
10:50am 8ft 15s 8s 11 16 mph 1003.9mb 47f 40f
9:50am 7ft 16s 7s  -  7 mph 1003.8mb 47f 40f
8:50am 7.5ft 16s 7s 7 11 mph 1003.8mb 49f 40f
7:50am 8ft 16s 7s 9 13 mph 1003.5mb 48f 40f
6:50am 7.5ft 15s 7s 9 13 mph 1003.3mb 49f 41f
5:50am 8ft 16s 8s 16 22 mph 1003.6mb 49f 42f
4:50am 7.5ft 16s 7s 16 18 mph 1004mb 49f 43f
3:50am 8ft 16s 8s 13 18 mph 1004.6mb 49f 42f
2:50am 6ft 16s 6s 11 16 mph 1005.6mb 49f 42f
1:50am 7ft 17s 7s 20 25 mph 1007.3mb 49f 41f
12:50am 7ft 13s 7s 20 22 mph 1009.1mb 48f 42f
Sat 02/25 11:50pm 6.5ft 17s 7s 16 22 mph 1010.6mb 48f 42f
10:50pm 6ft 14s 7s 20 25 mph 1012mb 48f 44f
9:50pm 6ft 13s 7s 18 25 mph 1013.5mb 48f 43f
8:50pm 6ft 14s 6s 13 16 mph 1014.8mb 47f 42f
7:50pm 5.5ft 14s 7s 11 16 mph 1016.2mb 48f 42f
6:50pm 6ft 13s 7s 13 22 mph 1017.4mb 48f 42f
5:50pm 6ft 14s 7s 16 18 mph 1018.5mb 47f 42f
4:50pm 5.5ft 14s 7s 11 13 mph 1019.7mb 48f 42f
3:50pm 5.5ft 15s 8s 16 18 mph 1020.6mb 48f 43f
2:50pm 6ft 14s 8s 18 22 mph 1021.4mb 48f 41f
1:50pm 5.5ft 14s 9s 11 16 mph 1022.1mb 48f 44f
12:50pm 6ft 14s 8s 11 13 mph 1023.2mb 47f 43f
11:50am 6ft 14s 9s 11 16 mph 1023.7mb 47f 42f
10:50am 6ft 14s 9s 4 7 mph 1024mb 47f 42f
9:50am 6.5ft 14s 9s 2 4 mph 1024.6mb 47f 43f
8:50am 6ft 14s 9s 2 4 mph 1024.9mb 47f 42f
7:50am 6ft 14s 9s 4 7 mph 1024.9mb 46f 41f
6:50am 6ft 14s 10s 4
mph
1024.7mb 47f 41f
5:50am 6ft 14s 9s 4
mph
1024.8mb 47f 41f
4:50am 6ft 14s 10s 4 7 mph 1024.8mb 46f 41f
3:50am 5ft 14s 9s 4
mph
1024.9mb 47f 42f
2:50am 6ft 14s 9s 4 7 mph 1025mb 47f 42f
1:50am 5ft 15s 8s 7 9 mph 1024.7mb 47f 42f
12:50am 5ft 14s 8s 11 13 mph 1024.5mb 47f 42f
Fri 02/24 11:50pm 6ft 15s 8s 9 13 mph 1024.1mb 47f 42f
10:50pm 5.5ft 14s 8s 7 9 mph 1024mb 47f 42f
9:50pm 6ft 15s 8s 13 18 mph 1023.7mb 47f 42f
8:50pm 5ft 14s 8s 13 16 mph 1023.3mb 47f 42f
7:50pm 6ft 14s 8s 11 13 mph 1022.8mb 47f 42f
6:50pm 5ft 14s 8s 9 11 mph 1022.5mb 47f 42f
5:50pm 5ft 14s 7s 9 13 mph 1021.8mb 48f 41f
4:50pm 5ft 15s 7s 11 13 mph 1021.3mb 48f 40f
3:50pm 5.5ft 15s 7s 16 20 mph 1020.7mb 48f 41f
2:50pm 5ft 15s 6s 16 18 mph 1020.5mb 48f 40f